Time;durP1;ratioP1;P1;durP2;ratioP2;P2;SDS_P1;SDS_P2;PMS_P1;PMS_P2;Temp;Humidity;BMP_temperature;BMP_pressure;BME280_temperature;BME280_humidity;BME280_pressure;Samples;Min_cycle;Max_cycle;Signal;HPM_P1;HPM_P2
2022/07/19 00:01:53;;;;;;;7.22;3.25;;;;;;;21.59;74.34;101738.22;5176281;27;20053;-57
2022/07/19 00:04:21;;;;;;;7.72;3.38;;;;;;;21.56;74.76;101735.03;5176862;27;20050;-57
2022/07/19 00:06:49;;;;;;;6.82;3.25;;;;;;;21.46;75.52;101737.72;5178224;27;20045;-56
2022/07/19 00:09:19;;;;;;;6.03;3.03;;;;;;;21.34;76.62;101737.09;5176567;27;20046;-57
2022/07/19 00:11:47;;;;;;;6.13;3.25;;;;;;;21.23;75.83;101731.94;5174488;27;20046;-57
2022/07/19 00:14:16;;;;;;;6.03;3.15;;;;;;;21.26;76.32;101737.81;5178117;27;20129;-57
2022/07/19 00:16:44;;;;;;;7.63;3.40;;;;;;;21.19;77.06;101730.56;5178547;27;20050;-56
2022/07/19 00:19:12;;;;;;;9.45;3.20;;;;;;;21.27;77.12;101730.66;5177970;27;20070;-56
2022/07/19 00:21:40;;;;;;;8.50;3.38;;;;;;;21.20;77.38;101727.72;5177695;27;20092;-55
2022/07/19 00:24:09;;;;;;;7.60;3.50;;;;;;;21.19;77.30;101726.03;5175901;27;20046;-55
2022/07/19 00:26:38;;;;;;;5.88;3.28;;;;;;;21.10;77.89;101725.13;5173804;27;20050;-53
2022/07/19 00:29:07;;;;;;;8.05;3.63;;;;;;;21.08;77.74;101726.25;5177570;27;20038;-54
2022/07/19 00:31:35;;;;;;;8.18;3.80;;;;;;;21.04;78.75;101719.50;5159395;27;20061;-55
2022/07/19 00:34:04;;;;;;;6.32;3.55;;;;;;;21.02;78.62;101716.97;5176046;27;20491;-55
2022/07/19 00:36:32;;;;;;;6.65;3.40;;;;;;;20.94;78.95;101720.38;5174985;27;20043;-58
2022/07/19 00:39:00;;;;;;;7.80;3.42;;;;;;;20.92;79.45;101713.50;5177190;27;20466;-57
2022/07/19 00:41:28;;;;;;;7.30;3.42;;;;;;;20.92;79.40;101718.84;5158909;27;20058;-57
2022/07/19 00:43:58;;;;;;;8.38;3.75;;;;;;;20.81;80.50;101719.88;5177240;27;20071;-57
2022/07/19 00:46:26;;;;;;;6.82;3.10;;;;;;;20.73;80.91;101719.75;5177816;27;20054;-55
2022/07/19 00:48:55;;;;;;;7.50;3.20;;;;;;;20.68;82.10;101719.31;5175568;27;20095;-56
2022/07/19 00:51:23;;;;;;;7.43;3.50;;;;;;;20.71;81.10;101722.59;5174121;27;20061;-55
2022/07/19 00:53:53;;;;;;;8.75;4.50;;;;;;;20.68;81.61;101722.88;5177615;27;20043;-56
2022/07/19 00:56:23;;;;;;;9.45;4.43;;;;;;;20.68;82.27;101722.88;5178031;27;20072;-57
2022/07/19 00:58:52;;;;;;;10.45;4.78;;;;;;;20.74;82.47;101724.94;5159014;27;20042;-57
2022/07/19 01:01:21;;;;;;;11.50;5.25;;;;;;;20.67;83.34;101723.81;5175414;27;20050;-54
2022/07/19 01:03:51;;;;;;;9.20;4.38;;;;;;;20.58;83.34;101725.53;5174997;27;20497;-57
2022/07/19 01:06:22;;;;;;;10.45;4.65;;;;;;;20.59;83.95;101729.88;5177430;27;20073;-55
2022/07/19 01:08:50;;;;;;;10.57;4.70;;;;;;;20.61;83.72;101724.38;5177214;27;20046;-57
2022/07/19 01:11:18;;;;;;;8.07;4.70;;;;;;;20.54;84.25;101720.63;5177491;27;20030;-54
2022/07/19 01:13:47;;;;;;;7.78;4.18;;;;;;;20.49;84.07;101717.53;5177594;27;20035;-55
2022/07/19 01:16:15;;;;;;;8.07;4.43;;;;;;;20.54;83.49;101720.63;5156664;27;20137;-56
2022/07/19 01:18:45;;;;;;;10.88;4.22;;;;;;;20.45;84.13;101727.69;5174554;27;20489;-57
2022/07/19 01:21:22;;;;;;;6.90;3.95;;;;;;;20.42;84.21;101726.13;5176798;27;20046;-57
2022/07/19 01:23:51;;;;;;;9.10;4.45;;;;;;;20.47;84.05;101723.03;5176971;27;20042;-54
2022/07/19 01:26:19;;;;;;;8.88;4.43;;;;;;;20.40;83.56;101724.59;5177201;27;20073;-56
2022/07/19 01:28:47;;;;;;;7.25;4.10;;;;;;;20.39;84.53;101722.91;5158215;27;20046;-57
2022/07/19 01:31:15;;;;;;;8.75;4.43;;;;;;;20.42;84.75;101725.28;5176679;27;20046;-58
2022/07/19 01:33:45;;;;;;;7.97;3.90;;;;;;;20.37;84.84;101723.06;5158113;27;20030;-55
2022/07/19 01:36:14;;;;;;;8.32;4.20;;;;;;;20.36;85.80;101726.69;5176289;27;20046;-57
2022/07/19 01:38:43;;;;;;;9.38;4.40;;;;;;;20.31;86.12;101725.44;5176813;27;20108;-56
2022/07/19 01:41:11;;;;;;;7.35;4.28;;;;;;;20.27;86.58;101731.06;5176408;27;20054;-56
2022/07/19 01:43:40;;;;;;;7.88;3.83;;;;;;;20.16;86.56;101725.88;5176004;27;20046;-56
2022/07/19 01:46:08;;;;;;;8.93;4.20;;;;;;;20.16;86.88;101722.38;5173635;27;20050;-57
2022/07/19 01:48:37;;;;;;;9.98;4.05;;;;;;;20.12;86.46;101724.47;5174667;27;20398;-57
2022/07/19 01:51:05;;;;;;;6.72;3.80;;;;;;;20.07;87.29;101721.41;5176145;27;20473;-56
2022/07/19 01:53:33;;;;;;;9.93;4.32;;;;;;;20.00;88.06;101721.13;5176141;27;20509;-57
2022/07/19 01:56:06;;;;;;;6.25;4.00;;;;;;;20.03;88.42;101720.81;5176584;27;20042;-54
2022/07/19 01:58:34;;;;;;;6.35;3.72;;;;;;;20.08;87.79;101723.06;5175370;27;20046;-54
2022/07/19 02:01:02;;;;;;;9.82;3.95;;;;;;;20.08;88.30;101715.06;5173436;27;20047;-58
2022/07/19 02:03:30;;;;;;;7.88;3.75;;;;;;;19.99;88.94;101714.09;5174320;27;20110;-56
2022/07/19 02:05:58;;;;;;;6.75;4.10;;;;;;;20.09;88.28;101712.25;5157497;27;20074;-54
2022/07/19 02:08:27;;;;;;;7.97;4.00;;;;;;;19.92;89.21;101708.47;5175982;27;20113;-52
2022/07/19 02:10:55;;;;;;;9.43;3.97;;;;;;;19.98;88.26;101704.38;5175695;27;20053;-54
2022/07/19 02:13:25;;;;;;;7.43;3.90;;;;;;;19.89;88.56;101711.41;5173156;27;20046;-55
2022/07/19 02:15:53;;;;;;;6.85;3.90;;;;;;;19.82;89.06;101709.44;5172470;27;20046;-56
2022/07/19 02:18:21;;;;;;;8.88;4.28;;;;;;;19.77;89.35;101704.50;5176064;27;20058;-57
2022/07/19 02:20:49;;;;;;;8.43;4.40;;;;;;;19.83;89.18;101708.47;5173007;27;20042;-58
2022/07/19 02:23:17;;;;;;;7.10;4.47;;;;;;;19.75;90.19;101703.78;5173203;27;20046;-57
2022/07/19 02:25:45;;;;;;;6.65;3.85;;;;;;;19.68;90.39;101702.66;5174815;27;20078;-53
2022/07/19 02:28:13;;;;;;;8.98;4.15;;;;;;;19.70;90.39;101696.22;5175666;27;20042;-56
2022/07/19 02:30:42;;;;;;;10.52;3.65;;;;;;;19.67;89.80;101690.28;5175366;27;20050;-56
2022/07/19 02:33:10;;;;;;;8.10;4.25;;;;;;;19.72;89.87;101690.72;5175380;27;20058;-54
2022/07/19 02:35:38;;;;;;;9.18;4.07;;;;;;;19.71;89.33;101695.19;5174968;27;20045;-56
2022/07/19 02:38:06;;;;;;;8.65;4.10;;;;;;;19.63;89.94;101689.72;5173043;27;20457;-57
2022/07/19 02:40:34;;;;;;;7.72;3.90;;;;;;;19.65;90.19;101686.94;5172676;27;20038;-58
2022/07/19 02:43:03;;;;;;;8.25;4.00;;;;;;;19.64;89.48;101683.41;5175494;27;20049;-59
2022/07/19 02:45:31;;;;;;;6.88;3.65;;;;;;;19.66;89.43;101692.13;5175097;27;20050;-57
2022/07/19 02:48:04;;;;;;;7.05;3.55;;;;;;;19.65;89.26;101687.78;5175123;27;20496;-57
2022/07/19 02:50:32;;;;;;;8.75;4.28;;;;;;;19.56;89.70;101686.75;5175228;27;20046;-57
2022/07/19 02:53:00;;;;;;;8.35;3.85;;;;;;;19.57;89.37;101687.63;5174082;27;20099;-55
2022/07/19 02:55:29;;;;;;;9.43;3.90;;;;;;;19.52;88.99;101681.84;5171493;27;20050;-55
2022/07/19 02:57:57;;;;;;;7.00;3.63;;;;;;;19.47;88.77;101679.63;5172991;27;20137;-54
2022/07/19 03:00:25;;;;;;;7.75;3.90;;;;;;;19.47;88.50;101681.41;5175059;27;20045;-57
2022/07/19 03:02:53;;;;;;;8.25;3.80;;;;;;;19.41;88.50;101686.34;5174853;27;20103;-56
2022/07/19 03:05:23;;;;;;;9.30;4.03;;;;;;;19.36;88.54;101675.25;5175651;27;20045;-53
2022/07/19 03:07:51;;;;;;;8.75;3.60;;;;;;;19.31;88.58;101682.81;5174797;27;20042;-57
2022/07/19 03:10:19;;;;;;;7.85;3.67;;;;;;;19.31;88.19;101677.47;5175150;27;20038;-55
2022/07/19 03:12:47;;;;;;;7.45;3.83;;;;;;;19.29;88.32;101676.75;5175034;27;20455;-58
2022/07/19 03:15:15;;;;;;;8.10;3.58;;;;;;;19.23;88.29;101679.97;5175199;27;20071;-56
2022/07/19 03:17:43;;;;;;;9.25;4.28;;;;;;;19.23;88.04;101679.97;5155718;27;20167;-54
2022/07/19 03:20:12;;;;;;;6.78;3.83;;;;;;;19.21;88.03;101677.47;5174941;27;20034;-56
2022/07/19 03:22:41;;;;;;;7.72;4.00;;;;;;;19.16;88.39;101679.69;5174581;27;20509;-57
2022/07/19 03:25:09;;;;;;;8.32;4.00;;;;;;;19.23;87.80;101674.66;5172351;27;20106;-56
2022/07/19 03:27:37;;;;;;;7.50;3.97;;;;;;;19.22;88.31;101680.94;5170823;27;20492;-56
2022/07/19 03:30:07;;;;;;;8.35;3.33;;;;;;;19.29;88.26;101671.41;5173617;27;20050;-57
2022/07/19 03:32:35;;;;;;;7.00;3.72;;;;;;;19.38;88.04;101675.09;5155333;27;20050;-58
2022/07/19 03:35:04;;;;;;;8.73;3.97;;;;;;;19.25;88.77;101678.00;5174766;27;20121;-55
2022/07/19 03:37:32;;;;;;;6.90;3.58;;;;;;;19.21;88.50;101677.47;5173997;27;20042;-57
2022/07/19 03:40:02;;;;;;;9.93;3.90;;;;;;;19.14;88.95;101678.13;5173952;27;20046;-53
2022/07/19 03:42:30;;;;;;;8.45;3.60;;;;;;;19.09;88.94;101678.53;5173923;27;20100;-53
2022/07/19 03:44:58;;;;;;;8.10;3.67;;;;;;;19.05;89.08;101683.28;5174227;27;20038;-57
2022/07/19 03:47:26;;;;;;;7.60;3.85;;;;;;;19.03;88.57;101679.94;5174179;27;20091;-57
2022/07/19 03:49:54;;;;;;;5.93;3.75;;;;;;;19.09;87.88;101687.38;5174448;27;20388;-58
2022/07/19 03:52:22;;;;;;;6.65;3.50;;;;;;;19.08;87.84;101690.19;5174391;27;20090;-57
2022/07/19 03:54:50;;;;;;;7.38;3.75;;;;;;;19.04;88.22;101678.94;5160018;27;20034;-53
2022/07/19 03:57:20;;;;;;;7.85;3.65;;;;;;;19.07;88.33;101684.00;5169984;27;20496;-57
2022/07/19 03:59:48;;;;;;;6.03;3.70;;;;;;;19.07;88.35;101675.16;5173530;27;20430;-55
2022/07/19 04:02:16;;;;;;;7.28;3.67;;;;;;;18.99;88.07;101675.84;5174605;27;20046;-55
2022/07/19 04:04:44;;;;;;;6.60;3.70;;;;;;;18.98;88.56;101682.16;5154133;27;20045;-55
2022/07/19 04:07:12;;;;;;;6.53;3.83;;;;;;;19.04;88.65;101683.44;5171170;27;20098;-56
2022/07/19 04:09:40;;;;;;;7.25;3.80;;;;;;;18.97;88.83;101679.63;5173400;27;20042;-57
2022/07/19 04:12:08;;;;;;;9.25;4.07;;;;;;;18.99;88.31;101681.19;5151530;27;20481;-57
2022/07/19 04:14:37;;;;;;;7.10;3.65;;;;;;;19.09;87.97;101682.03;5171760;27;20039;-56
2022/07/19 04:17:05;;;;;;;7.10;3.50;;;;;;;19.08;88.46;101690.19;5174229;27;20042;-55
2022/07/19 04:19:35;;;;;;;6.85;3.72;;;;;;;18.96;88.83;101683.25;5173849;27;20034;-58
2022/07/19 04:22:03;;;;;;;8.07;3.70;;;;;;;18.98;89.62;101682.16;5174169;27;20184;-58
2022/07/19 04:24:31;;;;;;;7.65;3.50;;;;;;;18.96;89.46;101684.09;5173609;27;20042;-56
2022/07/19 04:26:59;;;;;;;6.55;3.72;;;;;;;18.98;90.00;101683.97;5173824;27;20433;-55
2022/07/19 04:29:27;;;;;;;7.30;3.70;;;;;;;18.97;89.81;101687.63;5173566;27;20046;-53
2022/07/19 04:31:57;;;;;;;7.80;4.03;;;;;;;18.97;89.96;101692.94;5172571;27;20038;-58
2022/07/19 04:34:25;;;;;;;10.65;4.50;;;;;;;19.01;89.32;101691.72;5172690;27;20038;-58
2022/07/19 04:36:53;;;;;;;12.10;4.72;;;;;;;19.04;88.36;101688.75;5170042;27;20046;-57
2022/07/19 04:39:21;;;;;;;9.70;4.38;;;;;;;19.04;89.69;101681.59;5170011;27;20054;-56
2022/07/19 04:41:49;;;;;;;9.02;4.60;;;;;;;19.07;89.79;101692.00;5172110;27;20492;-55
2022/07/19 04:44:17;;;;;;;13.07;4.82;;;;;;;19.14;89.14;101689.66;5170838;27;20038;-57
2022/07/19 04:46:45;;;;;;;9.23;4.75;;;;;;;19.15;89.71;101685.16;5164022;27;20046;-50
2022/07/19 04:49:16;;;;;;;10.73;5.22;;;;;;;19.17;90.58;101686.72;5156529;27;20047;-56
2022/07/19 04:51:44;;;;;;;11.55;5.10;;;;;;;19.21;89.48;101682.78;5173723;27;20050;-57
2022/07/19 04:54:12;;;;;;;10.85;5.07;;;;;;;19.33;90.30;101682.66;5176837;27;20419;-53
2022/07/19 04:56:40;;;;;;;10.13;5.45;;;;;;;19.32;90.20;101687.16;5174655;27;20479;-57
2022/07/19 04:59:08;;;;;;;9.55;5.00;;;;;;;19.33;90.73;101680.81;5169100;27;20054;-57
2022/07/19 05:01:36;;;;;;;8.90;5.03;;;;;;;19.39;90.34;101682.97;5155539;27;20043;-56
2022/07/19 05:04:05;;;;;;;13.48;5.97;;;;;;;19.43;88.41;101684.38;5158164;27;20047;-57
2022/07/19 05:06:35;;;;;;;13.43;6.40;;;;;;;19.48;85.12;101681.28;5175989;27;20786;-54
2022/07/19 05:09:04;;;;;;;11.85;5.97;;;;;;;19.54;84.95;101679.91;5175904;27;20450;-57
2022/07/19 05:11:32;;;;;;;15.13;8.45;;;;;;;19.60;79.57;101679.34;5172998;27;20121;-57
2022/07/19 05:14:00;;;;;;;18.20;9.20;;;;;;;19.65;78.31;101676.28;5172769;27;20113;-57
2022/07/19 05:16:28;;;;;;;16.70;9.23;;;;;;;19.73;77.80;101676.41;5175575;27;20110;-56
2022/07/19 05:18:57;;;;;;;15.95;8.95;;;;;;;19.80;77.54;101680.22;5175431;27;20030;-52
2022/07/19 05:21:25;;;;;;;14.05;8.75;;;;;;;19.87;77.17;101685.84;5173767;27;20504;-52
2022/07/19 05:23:54;;;;;;;25.50;14.10;;;;;;;19.93;75.04;101686.13;5172467;27;20055;-56
2022/07/19 05:26:22;;;;;;;25.83;14.15;;;;;;;19.98;74.51;101677.69;5174363;27;20454;-55
2022/07/19 05:28:50;;;;;;;23.92;15.00;;;;;;;20.05;74.28;101681.47;5171809;27;20039;-54
2022/07/19 05:31:18;;;;;;;25.63;15.15;;;;;;;20.13;75.11;101682.59;5172369;27;20090;-54
2022/07/19 05:33:47;;;;;;;20.95;12.93;;;;;;;20.20;73.58;101681.03;5173325;27;20117;-52
2022/07/19 05:36:15;;;;;;;20.50;12.13;;;;;;;20.28;72.75;101683.84;5172910;27;20113;-55
2022/07/19 05:38:43;;;;;;;22.30;14.50;;;;;;;20.35;71.33;101692.94;5175179;27;20038;-53
2022/07/19 05:41:12;;;;;;;21.40;12.60;;;;;;;20.43;70.70;101682.38;5156179;27;20046;-53
2022/07/19 05:43:41;;;;;;;23.58;12.57;;;;;;;20.52;70.61;101687.84;5172679;27;20050;-54
2022/07/19 05:46:09;;;;;;;18.30;10.73;;;;;;;20.63;70.84;101682.34;5175336;27;20083;-53
2022/07/19 05:48:38;;;;;;;19.55;11.02;;;;;;;20.73;71.92;101687.69;5174851;27;20137;-53
2022/07/19 05:51:06;;;;;;;19.20;10.55;;;;;;;20.90;71.69;101691.41;5174979;27;20049;-56
2022/07/19 05:53:36;;;;;;;19.40;9.07;;;;;;;20.99;71.37;101684.34;5175221;27;20503;-57
2022/07/19 05:56:05;;;;;;;18.48;8.25;;;;;;;21.09;72.48;101680.63;5174432;27;20087;-56
2022/07/19 05:58:35;;;;;;;17.75;9.38;;;;;;;21.23;69.96;101681.97;5174933;27;20481;-57
2022/07/19 06:01:19;;;;;;;22.38;11.35;;;;;;;21.43;67.40;101671.13;5174971;27;20054;-57
2022/07/19 06:03:49;;;;;;;21.35;11.23;;;;;;;21.48;66.59;101670.69;5174558;27;20058;-55
2022/07/19 06:06:26;;;;;;;22.38;11.18;;;;;;;21.59;66.37;101675.84;5173305;27;20045;-54
2022/07/19 06:08:54;;;;;;;15.98;9.27;;;;;;;21.74;65.76;101671.63;5172548;27;20091;-58
2022/07/19 06:11:23;;;;;;;14.20;9.35;;;;;;;21.91;65.42;101674.44;5153869;27;20042;-53
2022/07/19 06:13:52;;;;;;;12.88;8.00;;;;;;;22.01;65.67;101671.69;5171284;27;20046;-55
2022/07/19 06:16:21;;;;;;;16.05;7.93;;;;;;;22.16;64.54;101669.31;5173403;27;20441;-55
2022/07/19 06:18:49;;;;;;;13.65;7.03;;;;;;;22.26;66.08;101667.34;5175391;27;20045;-57
2022/07/19 06:21:20;;;;;;;13.05;6.95;;;;;;;22.37;65.05;101668.94;5174980;27;20058;-54
2022/07/19 06:23:48;;;;;;;15.07;8.05;;;;;;;22.52;61.99;101669.22;5174176;27;20049;-55
2022/07/19 06:26:17;;;;;;;14.57;7.57;;;;;;;22.61;62.99;101668.25;5171671;27;20442;-57
2022/07/19 06:28:45;;;;;;;12.10;6.93;;;;;;;22.77;62.54;101667.50;5174767;27;20046;-55
2022/07/19 06:31:16;;;;;;;12.90;8.00;;;;;;;22.89;61.72;101658.19;5175366;27;20484;-54
2022/07/19 06:33:47;;;;;;;13.40;8.18;;;;;;;23.07;61.38;101663.44;5175729;27;20077;-53
2022/07/19 06:36:16;;;;;;;14.20;8.25;;;;;;;23.18;61.83;101669.50;5175365;27;20046;-54
2022/07/19 06:38:45;;;;;;;12.63;7.45;;;;;;;23.29;61.15;101677.28;5175260;27;20094;-56
2022/07/19 06:41:13;;;;;;;12.35;6.70;;;;;;;23.51;62.22;101674.97;5175127;27;20060;-57
2022/07/19 06:43:42;;;;;;;10.70;6.05;;;;;;;23.70;62.40;101674.66;5175274;27;20426;-54
2022/07/19 06:46:10;;;;;;;11.65;7.18;;;;;;;23.86;60.64;101675.66;5175149;27;20073;-55
2022/07/19 06:48:40;;;;;;;11.80;7.82;;;;;;;24.03;59.27;101672.00;5173908;27;20042;-57
2022/07/19 06:51:08;;;;;;;11.82;7.65;;;;;;;24.17;59.69;101672.31;5172337;27;20046;-56
2022/07/19 06:53:36;;;;;;;11.65;7.13;;;;;;;24.33;58.81;101666.91;5173957;27;20106;-57
2022/07/19 06:56:05;;;;;;;13.02;7.05;;;;;;;24.51;59.18;101673.94;5156374;27;20046;-57
2022/07/19 06:58:34;;;;;;;12.27;8.13;;;;;;;24.74;58.27;101664.13;5174970;27;20061;-54
2022/07/19 07:01:08;;;;;;;13.93;6.72;;;;;;;24.96;56.34;101665.25;5175122;27;20061;-57
2022/07/19 07:03:37;;;;;;;11.35;6.88;;;;;;;25.08;56.35;101667.53;5174838;27;20042;-54
2022/07/19 07:06:07;;;;;;;12.60;7.07;;;;;;;25.21;54.88;101661.56;5174271;27;20581;-54
2022/07/19 07:08:35;;;;;;;9.77;5.88;;;;;;;25.40;56.08;101666.53;5174813;27;20034;-52
2022/07/19 07:11:03;;;;;;;9.93;5.32;;;;;;;25.59;56.22;101667.91;5170724;27;20050;-56
2022/07/19 07:13:31;;;;;;;11.57;7.78;;;;;;;25.81;54.53;101668.09;5172273;27;20485;-57
2022/07/19 07:16:00;;;;;;;11.05;6.32;;;;;;;25.90;54.47;101674.25;5175182;27;20057;-57
2022/07/19 07:18:28;;;;;;;12.73;6.55;;;;;;;26.11;53.62;101665.47;5174676;27;20054;-55
2022/07/19 07:20:56;;;;;;;12.55;5.05;;;;;;;26.30;52.13;101670.34;5174689;27;20091;-53
2022/07/19 07:23:25;;;;;;;10.68;4.88;;;;;;;26.48;51.37;101666.47;5174485;27;20038;-54
2022/07/19 07:25:53;;;;;;;9.77;4.93;;;;;;;26.66;50.14;101669.59;5174383;27;20109;-57
2022/07/19 07:28:22;;;;;;;9.25;3.83;;;;;;;26.83;49.72;101658.63;5174500;27;20115;-57
2022/07/19 07:30:53;;;;;;;12.63;4.63;;;;;;;27.08;50.03;101661.88;5174600;27;20400;-57
2022/07/19 07:33:21;;;;;;;11.25;3.85;;;;;;;27.30;47.10;101656.50;5153360;27;20085;-53
2022/07/19 07:35:49;;;;;;;7.50;3.40;;;;;;;27.52;45.48;101659.25;5152627;27;20143;-56
2022/07/19 07:38:17;;;;;;;8.48;3.33;;;;;;;27.75;44.86;101659.88;5173682;27;20034;-57
2022/07/19 07:40:47;;;;;;;13.15;3.67;;;;;;;27.81;44.06;101653.69;5169654;27;20110;-57
2022/07/19 07:43:15;;;;;;;8.45;3.13;;;;;;;27.98;43.05;101661.50;5172252;27;20071;-56
2022/07/19 07:45:43;;;;;;;6.72;3.25;;;;;;;28.12;42.26;101663.28;5174076;27;20049;-53
2022/07/19 07:48:13;;;;;;;7.05;3.10;;;;;;;28.17;41.67;101660.84;5174596;27;20413;-53
2022/07/19 07:50:42;;;;;;;8.23;2.90;;;;;;;28.32;42.83;101662.63;5172170;27;20077;-53
2022/07/19 07:53:10;;;;;;;9.35;3.08;;;;;;;28.48;43.02;101662.28;5172358;27;20046;-58
2022/07/19 07:55:39;;;;;;;9.05;3.13;;;;;;;28.72;42.33;101659.31;5173956;27;20046;-50
2022/07/19 07:58:10;;;;;;;8.60;3.40;;;;;;;28.81;41.96;101663.53;5174131;27;20058;-57
2022/07/19 08:00:39;;;;;;;8.95;3.33;;;;;;;29.00;43.57;101656.50;5173875;27;20409;-58
2022/07/19 08:03:08;;;;;;;12.15;3.10;;;;;;;29.15;40.49;101653.63;5171396;27;20144;-54
2022/07/19 08:05:36;;;;;;;7.40;2.90;;;;;;;29.20;39.88;101645.72;5172201;27;20550;-53
2022/07/19 08:08:05;;;;;;;7.75;2.80;;;;;;;29.31;40.69;101641.63;5174322;27;20520;-54
2022/07/19 08:10:35;;;;;;;9.93;3.30;;;;;;;29.46;41.61;101642.28;5174553;27;20102;-53
2022/07/19 08:13:03;;;;;;;9.85;2.95;;;;;;;29.76;40.39;101636.44;5174199;27;20060;-52
2022/07/19 08:15:37;;;;;;;9.55;3.13;;;;;;;29.95;41.96;101632.06;5174208;27;20042;-51
2022/07/19 08:18:06;;;;;;;8.52;2.92;;;;;;;30.16;39.27;101631.00;5174344;27;20042;-53
2022/07/19 08:20:34;;;;;;;9.38;3.15;;;;;;;30.38;39.35;101635.31;5177675;27;20358;-52
2022/07/19 08:23:02;;;;;;;7.70;2.92;;;;;;;30.49;38.54;101632.00;5175426;27;20049;-54
2022/07/19 08:25:32;;;;;;;9.52;3.00;;;;;;;30.51;37.95;101630.75;5177268;27;20042;-57
2022/07/19 08:28:00;;;;;;;9.63;3.10;;;;;;;30.75;37.59;101631.06;5178090;27;20046;-54
2022/07/19 08:30:29;;;;;;;9.05;3.10;;;;;;;30.98;36.88;101626.97;5178306;27;20081;-57
2022/07/19 08:33:18;;;;;;;8.55;3.30;;;;;;;31.14;37.01;101631.06;5174866;27;20458;-56
2022/07/19 08:35:46;;;;;;;9.13;2.92;;;;;;;31.29;37.59;101628.06;5176263;27;20069;-58
2022/07/19 08:38:22;;;;;;;7.05;2.63;;;;;;;31.53;34.47;101629.94;5177369;27;20145;-56
2022/07/19 08:40:53;;;;;;;7.80;3.00;;;;;;;31.49;35.34;101630.63;5177240;27;20057;-54
2022/07/19 08:43:22;;;;;;;7.80;2.55;;;;;;;31.51;33.72;101632.06;5177097;27;20053;-53
2022/07/19 08:45:51;;;;;;;6.93;2.40;;;;;;;31.72;34.04;101638.22;5175407;27;20038;-53
2022/07/19 08:48:21;;;;;;;9.40;2.63;;;;;;;31.82;32.54;101630.41;5155660;27;20049;-51
2022/07/19 08:50:51;;;;;;;13.52;2.85;;;;;;;31.83;32.80;101634.75;5157688;27;20083;-52
2022/07/19 08:53:21;;;;;;;6.03;2.40;;;;;;;31.86;32.73;101625.31;5176734;27;20509;-53
2022/07/19 08:55:49;;;;;;;7.13;2.47;;;;;;;31.93;31.99;101625.25;5175458;27;20042;-51
2022/07/19 08:58:17;;;;;;;7.72;2.50;;;;;;;32.05;32.22;101628.91;5173536;27;20118;-53
2022/07/19 09:00:46;;;;;;;6.70;2.72;;;;;;;32.07;31.50;101626.81;5175350;27;20046;-53
2022/07/19 09:03:14;;;;;;;5.18;2.60;;;;;;;32.10;30.68;101620.91;5174690;27;20492;-54
2022/07/19 09:05:43;;;;;;;6.30;2.60;;;;;;;32.17;31.19;101613.53;5174160;27;20050;-54
2022/07/19 09:08:13;;;;;;;7.35;2.50;;;;;;;32.42;30.79;101622.66;5177131;27;20372;-54
2022/07/19 09:11:13;;;;;;;6.88;2.75;;;;;;;32.55;31.30;101617.06;5174485;27;20038;-57
2022/07/19 09:13:33;;;;;;;6.47;2.50;;;;;;;32.67;30.88;101619.88;5173718;27;20054;-53
2022/07/19 09:16:03;;;;;;;5.97;2.33;;;;;;;32.69;31.16;101612.28;5176070;27;20082;-57
2022/07/19 09:18:33;;;;;;;6.32;2.38;;;;;;;32.81;31.56;101620.53;5177099;27;20081;-56
2022/07/19 09:21:04;;;;;;;7.05;2.55;;;;;;;32.97;30.66;101617.16;5177581;27;20045;-54
2022/07/19 09:23:33;;;;;;;7.35;3.10;;;;;;;33.09;29.97;101614.50;5176967;27;20049;-57
2022/07/19 09:26:04;;;;;;;7.70;2.75;;;;;;;33.27;29.72;101615.50;5176863;27;20074;-57
2022/07/19 09:28:34;;;;;;;8.23;2.67;;;;;;;33.55;29.39;101620.28;5176780;27;20038;-57
2022/07/19 09:31:04;;;;;;;7.75;2.88;;;;;;;33.73;29.47;101608.44;5176581;27;20046;-53
2022/07/19 09:33:34;;;;;;;7.60;2.90;;;;;;;33.94;29.62;101603.50;5176968;27;20485;-57
2022/07/19 09:36:12;;;;;;;9.32;2.95;;;;;;;34.00;28.43;101607.97;5176700;27;20073;-50
2022/07/19 09:38:42;;;;;;;7.90;2.95;;;;;;;34.26;29.07;101605.81;5176414;27;20042;-56
2022/07/19 09:41:12;;;;;;;6.30;2.38;;;;;;;34.24;28.22;101605.19;5176178;27;20100;-58
2022/07/19 09:43:54;;;;;;;9.15;2.90;;;;;;;34.37;27.99;101602.25;5176597;27;20046;-54
2022/07/19 09:46:35;;;;;;;7.40;2.70;;;;;;;34.72;28.98;101592.28;5176469;27;20046;-57
2022/07/19 09:49:05;;;;;;;7.82;2.72;;;;;;;34.91;27.51;101592.94;5176490;27;20047;-57
2022/07/19 09:51:38;;;;;;;7.47;2.67;;;;;;;35.25;26.60;101592.97;5176076;27;20497;-51
2022/07/19 09:54:07;;;;;;;7.68;2.80;;;;;;;35.29;26.96;101589.47;5173658;27;20042;-54
2022/07/19 09:56:38;;;;;;;7.85;2.97;;;;;;;35.46;27.16;101585.94;5173603;27;20077;-57
2022/07/19 09:59:07;;;;;;;8.00;2.88;;;;;;;35.47;26.79;101590.34;5157564;27;20038;-57
2022/07/19 10:01:36;;;;;;;9.10;2.75;;;;;;;35.38;25.91;101592.66;5176171;27;20047;-51
2022/07/19 10:04:08;;;;;;;9.45;2.80;;;;;;;35.54;25.66;101582.78;5175504;27;20138;-57
2022/07/19 10:06:39;;;;;;;;;;;;;;;35.63;25.53;101577.75;5174464;27;20054;-54
2022/07/19 10:09:09;;;;;;;6.55;2.80;;;;;;;35.71;25.84;101574.56;5174104;27;19919;-52
2022/07/19 10:11:38;;;;;;;7.25;2.92;;;;;;;35.99;25.38;101578.25;5157694;27;20057;-53
2022/07/19 10:14:07;;;;;;;6.18;2.70;;;;;;;36.01;28.75;101578.81;5175720;27;20117;-57
2022/07/19 10:16:46;;;;;;;8.95;2.90;;;;;;;36.14;28.56;101578.44;5175785;27;20042;-57
2022/07/19 10:19:19;;;;;;;7.53;2.60;;;;;;;36.20;26.33;101571.97;5175850;27;20121;-51
2022/07/19 10:21:49;;;;;;;6.60;2.90;;;;;;;36.17;27.13;101572.47;5175805;27;20042;-54
2022/07/19 10:24:45;;;;;;;7.00;2.70;;;;;;;36.34;26.69;101566.13;5175694;27;20034;-58
2022/07/19 10:27:14;;;;;;;8.30;2.70;;;;;;;36.42;27.17;101568.41;5175767;27;20042;-54
2022/07/19 10:29:43;;;;;;;6.43;2.42;;;;;;;36.53;26.88;101567.44;5157116;27;20095;-53
2022/07/19 10:32:13;;;;;;;5.32;2.45;;;;;;;36.95;26.77;101573.34;5174219;27;20046;-57
2022/07/19 10:34:43;;;;;;;6.20;2.55;;;;;;;37.15;25.08;101565.28;5172588;27;20552;-52
2022/07/19 10:37:12;;;;;;;8.77;2.80;;;;;;;37.20;25.70;101568.06;5155460;27;20141;-57
2022/07/19 10:39:41;;;;;;;7.15;2.80;;;;;;;37.13;25.93;101563.88;5175192;27;20506;-51
2022/07/19 10:42:19;;;;;;;8.00;2.70;;;;;;;37.24;24.65;101560.16;5174217;27;20060;-55
2022/07/19 10:45:10;;;;;;;6.47;2.47;;;;;;;37.68;24.22;101553.59;5174705;27;20075;-57
2022/07/19 10:48:04;;;;;;;7.82;2.50;;;;;;;38.04;23.41;101551.88;5174498;27;20509;-54
2022/07/19 10:50:53;;;;;;;6.28;2.70;;;;;;;38.14;23.06;101550.28;5172384;27;20046;-57
2022/07/19 10:54:03;;;;;;;7.00;2.28;;;;;;;38.21;22.15;101546.16;5174029;27;20050;-57
2022/07/19 10:56:35;;;;;;;5.22;2.08;;;;;;;38.45;22.57;101540.22;5156282;27;20046;-58
2022/07/19 10:59:14;;;;;;;5.95;2.40;;;;;;;38.64;23.01;101537.78;5175224;27;20396;-55
2022/07/19 11:01:55;;;;;;;7.75;2.67;;;;;;;38.83;23.31;101538.09;5174697;27;20516;-55
2022/07/19 11:04:29;;;;;;;6.13;2.53;;;;;;;38.73;22.12;101535.34;5174655;27;20137;-52
2022/07/19 11:07:12;;;;;;;6.20;2.15;;;;;;;38.49;21.12;101538.59;5173822;27;20079;-57
2022/07/19 11:09:48;;;;;;;7.75;2.30;;;;;;;38.83;22.32;101529.88;5171703;27;20061;-53
2022/07/19 11:12:28;;;;;;;7.97;2.55;;;;;;;39.04;20.79;101530.66;5172127;27;20046;-57
2022/07/19 11:14:57;;;;;;;6.93;2.40;;;;;;;39.13;20.76;101533.66;5174326;27;20046;-55
2022/07/19 11:17:51;;;;;;;6.20;2.22;;;;;;;39.07;20.65;101532.03;5172363;27;20069;-54
2022/07/19 11:20:19;;;;;;;5.80;2.08;;;;;;;39.36;21.59;101525.97;5173689;27;20057;-53
2022/07/19 11:22:49;;;;;;;8.80;2.63;;;;;;;39.51;20.81;101528.66;5169488;27;20050;-54
2022/07/19 11:25:25;;;;;;;5.63;2.42;;;;;;;39.87;19.87;101520.34;5163282;27;20048;-55
2022/07/19 11:27:53;;;;;;;7.38;2.25;;;;;;;39.58;20.48;101516.56;5159619;27;20035;-53
2022/07/19 11:30:23;;;;;;;5.63;2.10;;;;;;;39.65;19.69;101523.47;5167287;27;20053;-52
2022/07/19 11:32:53;;;;;;;7.72;2.80;;;;;;;39.81;19.77;101512.38;5164403;27;20073;-56
2022/07/19 11:35:21;;;;;;;6.88;2.30;;;;;;;39.80;20.50;101506.06;5173779;27;20396;-56